sensor_id;sensor_type;location;lat;lon;timestamp;temperature;humidity
16674;DHT22;8450;52.654;10.326;2022-11-15T07:25:41;5.10;99.90
16674;DHT22;8450;52.654;10.326;2022-11-15T07:28:26;5.10;99.90
16674;DHT22;8450;52.654;10.326;2022-11-15T07:31:11;5.10;99.90
16674;DHT22;8450;52.654;10.326;2022-11-15T07:33:55;5.10;99.90
16674;DHT22;8450;52.654;10.326;2022-11-15T07:36:39;5.20;99.90
16674;DHT22;8450;52.654;10.326;2022-11-15T07:39:23;5.10;99.90
16674;DHT22;8450;52.654;10.326;2022-11-15T07:44:48;5.20;99.90
16674;DHT22;8450;52.654;10.326;2022-11-15T07:47:32;5.20;99.90
16674;DHT22;8450;52.654;10.326;2022-11-15T07:50:17;5.20;99.90
16674;DHT22;8450;52.654;10.326;2022-11-15T07:53:01;5.30;99.90
16674;DHT22;8450;52.654;10.326;2022-11-15T07:55:45;5.30;99.90
16674;DHT22;8450;52.654;10.326;2022-11-15T07:58:29;5.30;99.90
16674;DHT22;8450;52.654;10.326;2022-11-15T08:03:54;5.40;99.90
16674;DHT22;8450;52.654;10.326;2022-11-15T08:06:39;5.40;99.90
16674;DHT22;8450;52.654;10.326;2022-11-15T08:09:22;5.40;99.90
16674;DHT22;8450;52.654;10.326;2022-11-15T08:12:07;5.50;99.90
16674;DHT22;8450;52.654;10.326;2022-11-15T08:14:51;5.50;99.90
16674;DHT22;8450;52.654;10.326;2022-11-15T08:17:35;5.60;99.90
16674;DHT22;8450;52.654;10.326;2022-11-15T08:20:19;5.60;99.90
16674;DHT22;8450;52.654;10.326;2022-11-15T08:23:05;5.70;99.90
16674;DHT22;8450;52.654;10.326;2022-11-15T08:25:49;5.70;99.90
16674;DHT22;8450;52.654;10.326;2022-11-15T08:28:33;5.80;99.90
16674;DHT22;8450;52.654;10.326;2022-11-15T08:33:59;6.00;99.90
16674;DHT22;8450;52.654;10.326;2022-11-15T08:36:44;6.10;99.90
16674;DHT22;8450;52.654;10.326;2022-11-15T08:39:28;6.20;99.90
16674;DHT22;8450;52.654;10.326;2022-11-15T08:42:12;6.30;99.90
16674;DHT22;8450;52.654;10.326;2022-11-15T08:44:57;6.40;99.90
16674;DHT22;8450;52.654;10.326;2022-11-15T08:47:41;6.50;99.90
16674;DHT22;8450;52.654;10.326;2022-11-15T08:50:25;6.70;99.90
16674;DHT22;8450;52.654;10.326;2022-11-15T08:53:10;6.70;99.90
16674;DHT22;8450;52.654;10.326;2022-11-15T08:55:54;6.80;99.90
16674;DHT22;8450;52.654;10.326;2022-11-15T08:58:38;6.90;99.90
16674;DHT22;8450;52.654;10.326;2022-11-15T09:01:22;7.00;99.90
16674;DHT22;8450;52.654;10.326;2022-11-15T09:04:06;7.10;99.90
16674;DHT22;8450;52.654;10.326;2022-11-15T09:06:50;7.20;99.90
16674;DHT22;8450;52.654;10.326;2022-11-15T09:09:35;7.20;99.90
16674;DHT22;8450;52.654;10.326;2022-11-15T09:12:19;7.40;99.90
16674;DHT22;8450;52.654;10.326;2022-11-15T09:15:04;7.40;99.90
16674;DHT22;8450;52.654;10.326;2022-11-15T09:17:49;7.60;99.90
16674;DHT22;8450;52.654;10.326;2022-11-15T09:20:33;7.80;99.90
16674;DHT22;8450;52.654;10.326;2022-11-15T09:23:17;8.00;99.90
16674;DHT22;8450;52.654;10.326;2022-11-15T09:26:02;8.20;99.90
16674;DHT22;8450;52.654;10.326;2022-11-15T09:28:46;8.50;99.90
16674;DHT22;8450;52.654;10.326;2022-11-15T09:31:31;8.80;99.90
16674;DHT22;8450;52.654;10.326;2022-11-15T09:34:15;9.10;99.90
16674;DHT22;8450;52.654;10.326;2022-11-15T09:36:59;9.40;99.90
16674;DHT22;8450;52.654;10.326;2022-11-15T09:39:42;9.80;99.90
16674;DHT22;8450;52.654;10.326;2022-11-15T09:42:50;10.10;99.90
16674;DHT22;8450;52.654;10.326;2022-11-15T09:46:02;10.50;99.90
16674;DHT22;8450;52.654;10.326;2022-11-15T09:49:07;10.80;99.90
16674;DHT22;8450;52.654;10.326;2022-11-15T09:52:00;11.20;99.90
16674;DHT22;8450;52.654;10.326;2022-11-15T09:54:33;11.50;99.90
16674;DHT22;8450;52.654;10.326;2022-11-15T09:57:14;11.70;99.90
16674;DHT22;8450;52.654;10.326;2022-11-15T10:05:18;12.40;99.90
16674;DHT22;8450;52.654;10.326;2022-11-15T10:10:41;12.80;99.90
16674;DHT22;8450;52.654;10.326;2022-11-15T10:13:16;13.10;99.90
16674;DHT22;8450;52.654;10.326;2022-11-15T10:15:46;13.20;99.90
16674;DHT22;8450;52.654;10.326;2022-11-15T10:18:28;13.40;99.90
16674;DHT22;8450;52.654;10.326;2022-11-15T10:21:06;13.50;99.90
16674;DHT22;8450;52.654;10.326;2022-11-15T10:23:36;13.70;99.90
16674;DHT22;8450;52.654;10.326;2022-11-15T10:26:08;13.80;99.90
16674;DHT22;8450;52.654;10.326;2022-11-15T10:28:36;14.00;99.90
16674;DHT22;8450;52.654;10.326;2022-11-15T10:31:01;14.10;99.90
16674;DHT22;8450;52.654;10.326;2022-11-15T10:33:33;14.30;99.90
16674;DHT22;8450;52.654;10.326;2022-11-15T10:41:14;14.70;99.90
16674;DHT22;8450;52.654;10.326;2022-11-15T10:43:41;14.80;99.90
16674;DHT22;8450;52.654;10.326;2022-11-15T10:46:26;14.90;99.90
16674;DHT22;8450;52.654;10.326;2022-11-15T10:48:52;15.10;99.90
16674;DHT22;8450;52.654;10.326;2022-11-15T10:51:24;15.20;99.90
16674;DHT22;8450;52.654;10.326;2022-11-15T10:53:56;15.30;99.90
16674;DHT22;8450;52.654;10.326;2022-11-15T10:56:25;15.50;99.90
16674;DHT22;8450;52.654;10.326;2022-11-15T10:58:54;15.60;99.90
16674;DHT22;8450;52.654;10.326;2022-11-15T11:01:25;15.70;99.90
16674;DHT22;8450;52.654;10.326;2022-11-15T11:04:01;15.80;99.90
16674;DHT22;8450;52.654;10.326;2022-11-15T11:06:27;15.90;99.90
16674;DHT22;8450;52.654;10.326;2022-11-15T11:09:03;16.00;99.90
16674;DHT22;8450;52.654;10.326;2022-11-15T11:11:51;16.10;99.90
16674;DHT22;8450;52.654;10.326;2022-11-15T11:14:22;16.10;99.90
16674;DHT22;8450;52.654;10.326;2022-11-15T11:25:28;16.30;99.90
16674;DHT22;8450;52.654;10.326;2022-11-15T11:30:51;16.40;99.90
16674;DHT22;8450;52.654;10.326;2022-11-15T11:33:23;16.50;99.90
16674;DHT22;8450;52.654;10.326;2022-11-15T11:35:52;16.50;99.90
16674;DHT22;8450;52.654;10.326;2022-11-15T11:44:23;16.40;99.90
16674;DHT22;8450;52.654;10.326;2022-11-15T11:47:10;16.40;99.90
16674;DHT22;8450;52.654;10.326;2022-11-15T11:49:59;16.30;99.90
16674;DHT22;8450;52.654;10.326;2022-11-15T11:52:33;16.30;99.90
16674;DHT22;8450;52.654;10.326;2022-11-15T11:55:10;16.20;99.90
16674;DHT22;8450;52.654;10.326;2022-11-15T11:57:46;16.20;99.90
16674;DHT22;8450;52.654;10.326;2022-11-15T12:00:21;16.10;99.90
16674;DHT22;8450;52.654;10.326;2022-11-15T12:05:35;16.00;99.90
16674;DHT22;8450;52.654;10.326;2022-11-15T12:08:20;15.90;99.90
16674;DHT22;8450;52.654;10.326;2022-11-15T12:10:53;15.80;99.90
16674;DHT22;8450;52.654;10.326;2022-11-15T12:13:25;15.80;99.90
16674;DHT22;8450;52.654;10.326;2022-11-15T12:16:07;15.70;99.90
16674;DHT22;8450;52.654;10.326;2022-11-15T12:18:36;15.70;99.90
16674;DHT22;8450;52.654;10.326;2022-11-15T12:21:07;15.60;99.90
16674;DHT22;8450;52.654;10.326;2022-11-15T12:23:52;15.50;99.90
16674;DHT22;8450;52.654;10.326;2022-11-15T12:26:24;15.50;99.90
16674;DHT22;8450;52.654;10.326;2022-11-15T12:28:55;15.40;99.90
16674;DHT22;8450;52.654;10.326;2022-11-15T12:31:42;15.40;99.90
16674;DHT22;8450;52.654;10.326;2022-11-15T12:34:29;15.30;99.90
16674;DHT22;8450;52.654;10.326;2022-11-15T12:36:55;15.30;99.90
16674;DHT22;8450;52.654;10.326;2022-11-15T12:47:24;15.10;99.90
16674;DHT22;8450;52.654;10.326;2022-11-15T12:49:50;15.10;99.90
16674;DHT22;8450;52.654;10.326;2022-11-15T12:52:16;15.10;99.90
16674;DHT22;8450;52.654;10.326;2022-11-15T12:59:56;15.00;99.90
16674;DHT22;8450;52.654;10.326;2022-11-15T13:23:08;14.80;99.90
16674;DHT22;8450;52.654;10.326;2022-11-15T13:28:27;14.70;99.90
16674;DHT22;8450;52.654;10.326;2022-11-15T13:30:56;14.70;99.90
16674;DHT22;8450;52.654;10.326;2022-11-15T13:36:02;14.60;99.90
16674;DHT22;8450;52.654;10.326;2022-11-15T13:40:56;14.60;99.90
16674;DHT22;8450;52.654;10.326;2022-11-15T13:46:19;14.50;99.90
16674;DHT22;8450;52.654;10.326;2022-11-15T13:48:46;14.40;99.90
16674;DHT22;8450;52.654;10.326;2022-11-15T13:56:43;14.30;99.90
16674;DHT22;8450;52.654;10.326;2022-11-15T13:59:14;14.30;99.90
16674;DHT22;8450;52.654;10.326;2022-11-15T14:01:42;14.20;99.90
16674;DHT22;8450;52.654;10.326;2022-11-15T14:04:13;14.20;99.90
16674;DHT22;8450;52.654;10.326;2022-11-15T14:06:48;14.10;99.90
16674;DHT22;8450;52.654;10.326;2022-11-15T14:11:57;14.00;99.90
16674;DHT22;8450;52.654;10.326;2022-11-15T14:14:24;14.00;99.90
16674;DHT22;8450;52.654;10.326;2022-11-15T14:16:55;14.00;99.90
16674;DHT22;8450;52.654;10.326;2022-11-15T14:24:38;13.80;99.90
16674;DHT22;8450;52.654;10.326;2022-11-15T14:27:24;13.80;99.90
16674;DHT22;8450;52.654;10.326;2022-11-15T14:29:51;13.80;99.90
16674;DHT22;8450;52.654;10.326;2022-11-15T14:34:44;13.70;99.90
16674;DHT22;8450;52.654;10.326;2022-11-15T14:39:47;13.60;99.90
16674;DHT22;8450;52.654;10.326;2022-11-15T14:42:13;13.50;99.90
16674;DHT22;8450;52.654;10.326;2022-11-15T14:44:39;13.50;99.90
16674;DHT22;8450;52.654;10.326;2022-11-15T14:47:05;13.50;99.90
16674;DHT22;8450;52.654;10.326;2022-11-15T14:49:30;13.50;99.90
16674;DHT22;8450;52.654;10.326;2022-11-15T14:51:56;13.40;99.90
16674;DHT22;8450;52.654;10.326;2022-11-15T14:54:21;13.40;99.90
16674;DHT22;8450;52.654;10.326;2022-11-15T14:56:47;13.30;99.90
16674;DHT22;8450;52.654;10.326;2022-11-15T14:59:12;13.30;99.90
